createdAt,value
2019-03-12T00:01:01.358Z,91.82
2019-03-12T00:03:32.046Z,91.09
2019-03-12T00:06:02.479Z,91.50
2019-03-12T00:08:32.292Z,91.48
2019-03-12T00:11:01.746Z,91.60
2019-03-12T00:13:31.584Z,91.20
2019-03-12T00:16:01.346Z,91.77
2019-03-12T00:18:31.709Z,91.99
2019-03-12T00:21:01.628Z,92.73
2019-03-12T00:23:31.498Z,93.28
2019-03-12T00:26:00.855Z,94.01
2019-03-12T00:28:30.665Z,95.04
2019-03-12T00:31:00.532Z,95.78
2019-03-12T00:33:29.936Z,96.28
2019-03-12T00:35:59.298Z,96.54
2019-03-12T00:38:28.681Z,96.79
2019-03-12T00:40:58.120Z,97.09
2019-03-12T00:43:27.450Z,97.56
2019-03-12T00:45:57.226Z,97.98
2019-03-12T00:48:27.090Z,98.78
2019-03-12T00:50:56.447Z,99.12
2019-03-12T00:53:26.234Z,98.98
2019-03-12T00:55:56.292Z,99.17
2019-03-12T00:58:26.495Z,99.31
2019-03-12T01:00:55.838Z,99.47
2019-03-12T01:03:25.200Z,99.59
2019-03-12T01:05:55.421Z,99.43
2019-03-12T01:08:25.187Z,100.00
2019-03-12T01:10:54.709Z,99.81
2019-03-12T01:13:24.131Z,99.05
2019-03-12T01:15:53.577Z,97.67
2019-03-12T01:18:23.058Z,97.51
2019-03-12T01:20:52.838Z,98.20
2019-03-12T01:23:22.954Z,99.23
2019-03-12T01:25:54.100Z,100.00
2019-03-12T01:28:23.879Z,100.00
2019-03-12T01:30:53.274Z,100.00
2019-03-12T01:33:22.657Z,100.00
2019-03-12T01:35:52.305Z,100.00
2019-03-12T01:38:21.854Z,100.00
2019-03-12T01:40:51.237Z,100.00
2019-03-12T01:43:21.076Z,100.00
2019-03-12T01:45:51.404Z,100.00
2019-03-12T01:48:20.819Z,100.00
2019-03-12T01:50:50.242Z,100.00
2019-03-12T01:53:19.572Z,100.00
2019-03-12T01:55:48.975Z,100.00
2019-03-12T01:58:18.388Z,100.00
2019-03-12T02:00:47.814Z,100.00
2019-03-12T02:03:17.649Z,100.00
2019-03-12T02:05:47.081Z,100.00
2019-03-12T02:08:16.817Z,100.00
2019-03-12T02:10:46.250Z,100.00
2019-03-12T02:13:15.657Z,100.00
2019-03-12T02:15:44.994Z,100.00
2019-03-12T02:18:14.388Z,100.00
2019-03-12T02:20:44.237Z,100.00
2019-03-12T02:23:13.667Z,100.00
2019-03-12T02:25:43.070Z,100.00
2019-03-12T02:28:12.691Z,100.00
2019-03-12T02:30:42.102Z,100.00
2019-03-12T02:33:11.977Z,100.00
2019-03-12T02:35:41.493Z,100.00
2019-03-12T02:38:10.904Z,100.00
2019-03-12T02:40:40.826Z,100.00
2019-03-12T02:43:10.273Z,100.00
2019-03-12T02:45:39.666Z,100.00
2019-03-12T02:48:09.846Z,100.00
2019-03-12T02:50:39.231Z,100.00
2019-03-12T02:53:09.247Z,100.00
2019-03-12T02:55:38.623Z,100.00
2019-03-12T02:58:08.180Z,100.00
2019-03-12T03:00:37.663Z,100.00
2019-03-12T03:03:07.170Z,100.00
2019-03-12T03:05:46.357Z,100.00
2019-03-12T03:08:16.966Z,100.00
2019-03-12T03:10:46.330Z,100.00
2019-03-12T03:13:15.735Z,100.00
2019-03-12T03:15:45.635Z,100.00
2019-03-12T03:18:15.046Z,100.00
2019-03-12T03:20:44.444Z,100.00
2019-03-12T03:23:13.867Z,100.00
2019-03-12T03:25:43.234Z,100.00
2019-03-12T03:28:12.975Z,100.00
2019-03-12T03:30:42.460Z,100.00
2019-03-12T03:33:11.842Z,100.00
2019-03-12T03:35:41.317Z,100.00
2019-03-12T03:38:10.672Z,100.00
2019-03-12T03:40:40.597Z,100.00
2019-03-12T03:43:09.987Z,100.00
2019-03-12T03:45:39.406Z,100.00
2019-03-12T03:48:08.786Z,100.00
2019-03-12T03:50:38.222Z,100.00
2019-03-12T03:53:07.649Z,100.00
2019-03-12T03:55:37.032Z,100.00
2019-03-12T03:58:06.497Z,100.00
2019-03-12T04:00:35.990Z,100.00
2019-03-12T04:03:06.242Z,100.00
2019-03-12T04:05:35.645Z,100.00
2019-03-12T04:08:05.024Z,100.00
2019-03-12T04:10:34.453Z,100.00
2019-03-12T04:13:04.011Z,100.00
2019-03-12T04:15:33.351Z,100.00
2019-03-12T04:18:02.836Z,99.58
2019-03-12T04:20:32.585Z,99.44
2019-03-12T04:23:02.503Z,99.15
2019-03-12T04:25:32.334Z,98.42
2019-03-12T04:28:01.725Z,97.90
2019-03-12T04:30:31.180Z,97.64
2019-03-12T04:33:00.555Z,97.15
2019-03-12T04:35:30.988Z,97.17
2019-03-12T04:38:00.370Z,97.57
2019-03-12T04:40:29.734Z,97.50
2019-03-12T04:42:59.617Z,97.78
2019-03-12T04:45:29.931Z,97.88
2019-03-12T04:47:59.356Z,98.02
2019-03-12T04:50:28.749Z,98.45
2019-03-12T04:52:58.154Z,98.62
2019-03-12T04:55:27.560Z,98.74
2019-03-12T04:57:56.978Z,98.65
2019-03-12T05:00:26.351Z,98.84
2019-03-12T05:02:56.164Z,99.29
2019-03-12T05:05:25.568Z,99.71
2019-03-12T05:07:55.010Z,100.00
2019-03-12T05:10:24.395Z,100.00
2019-03-12T05:12:53.733Z,100.00
2019-03-12T05:15:23.109Z,100.00
2019-03-12T05:17:52.845Z,100.00
2019-03-12T05:20:22.247Z,100.00
2019-03-12T05:22:51.665Z,100.00
2019-03-12T05:25:21.938Z,100.00
2019-03-12T05:27:51.787Z,100.00
2019-03-12T05:30:21.555Z,100.00
2019-03-12T05:32:51.376Z,100.00
2019-03-12T05:35:21.014Z,100.00
2019-03-12T05:37:50.380Z,100.00
2019-03-12T05:40:19.778Z,100.00
2019-03-12T05:42:49.329Z,100.00
2019-03-12T05:45:18.829Z,100.00
2019-03-12T05:47:48.524Z,100.00
2019-03-12T05:50:18.027Z,100.00
2019-03-12T05:52:48.942Z,100.00
2019-03-12T05:55:18.880Z,100.00
2019-03-12T05:57:48.346Z,100.00
2019-03-12T06:00:18.677Z,100.00
2019-03-12T06:02:48.057Z,100.00
2019-03-12T06:05:17.546Z,100.00
2019-03-12T06:07:46.918Z,100.00
2019-03-12T06:10:16.524Z,100.00
2019-03-12T06:12:46.434Z,100.00
2019-03-12T06:15:16.035Z,100.00
2019-03-12T06:17:45.577Z,100.00
2019-03-12T06:20:15.476Z,100.00
2019-03-12T06:22:44.983Z,100.00
2019-03-12T06:25:14.932Z,100.00
2019-03-12T06:27:44.886Z,100.00
2019-03-12T06:30:14.567Z,100.00
2019-03-12T06:32:53.013Z,100.00
2019-03-12T06:35:33.666Z,100.00
2019-03-12T06:38:12.452Z,100.00
2019-03-12T06:41:03.668Z,100.00
2019-03-12T06:43:55.024Z,100.00
2019-03-12T06:46:49.515Z,100.00
2019-03-12T06:49:43.920Z,100.00
2019-03-12T06:52:34.262Z,100.00
2019-03-12T06:55:19.367Z,100.00
2019-03-12T06:58:41.840Z,100.00
2019-03-12T07:01:29.254Z,100.00
2019-03-12T07:04:08.199Z,100.00
2019-03-12T07:06:49.682Z,100.00
2019-03-12T07:09:37.651Z,100.00
2019-03-12T07:12:15.729Z,100.00
2019-03-12T07:14:59.741Z,100.00
2019-03-12T07:17:52.523Z,100.00
2019-03-12T07:20:33.623Z,100.00
2019-03-12T07:23:37.083Z,100.00
2019-03-12T07:26:18.260Z,100.00
2019-03-12T07:28:54.967Z,100.00
2019-03-12T07:31:36.839Z,100.00
2019-03-12T07:34:12.788Z,100.00
2019-03-12T07:37:01.123Z,100.00
2019-03-12T07:39:53.124Z,100.00
2019-03-12T07:42:37.461Z,100.00
2019-03-12T07:45:42.081Z,100.00
2019-03-12T07:48:35.355Z,100.00
2019-03-12T07:51:26.844Z,100.00
2019-03-12T07:54:13.700Z,100.00
2019-03-12T07:57:05.071Z,100.00
2019-03-12T07:59:52.119Z,100.00
2019-03-12T08:02:40.460Z,100.00
2019-03-12T08:05:34.696Z,100.00
2019-03-12T08:08:25.759Z,100.00
2019-03-12T08:11:01.010Z,100.00
2019-03-12T08:13:55.206Z,100.00
2019-03-12T08:16:50.365Z,100.00
2019-03-12T08:19:39.125Z,100.00
2019-03-12T08:22:20.443Z,100.00
2019-03-12T08:25:09.007Z,100.00
2019-03-12T08:27:47.685Z,100.00
2019-03-12T08:30:35.946Z,100.00
2019-03-12T08:33:24.726Z,100.00
2019-03-12T08:36:19.164Z,100.00
2019-03-12T08:39:02.350Z,100.00
2019-03-12T08:41:49.551Z,100.00
2019-03-12T08:44:53.283Z,100.00
2019-03-12T08:47:34.607Z,100.00
2019-03-12T08:50:29.507Z,100.00
2019-03-12T08:53:23.930Z,99.59
2019-03-12T08:55:59.782Z,98.74
2019-03-12T08:58:57.031Z,97.11
2019-03-12T09:01:32.801Z,96.60
2019-03-12T09:04:21.077Z,96.60
2019-03-12T09:07:12.346Z,95.71
2019-03-12T09:09:56.093Z,94.48
2019-03-12T09:12:40.492Z,93.78
2019-03-12T09:15:32.214Z,93.04
2019-03-12T09:18:13.397Z,93.04
2019-03-12T09:21:11.030Z,92.24
2019-03-12T09:23:59.475Z,92.16
2019-03-12T09:26:33.855Z,92.00
2019-03-12T09:29:21.526Z,90.38
2019-03-12T09:32:12.422Z,89.91
2019-03-12T09:35:13.013Z,89.93
2019-03-12T09:38:05.772Z,89.40
2019-03-12T09:40:57.934Z,88.38
2019-03-12T09:43:49.215Z,88.64
2019-03-12T09:46:42.299Z,88.51
2019-03-12T09:49:20.955Z,88.84
2019-03-12T09:52:01.155Z,89.15
2019-03-12T09:54:45.199Z,88.82
2019-03-12T09:57:24.343Z,88.11
2019-03-12T10:00:15.591Z,88.38
2019-03-12T10:03:00.763Z,88.26
2019-03-12T10:05:50.027Z,88.75
2019-03-12T10:08:41.481Z,88.36
2019-03-12T10:11:36.015Z,88.26
2019-03-12T10:14:23.571Z,88.26
2019-03-12T10:17:00.109Z,87.51
2019-03-12T10:19:39.754Z,85.81
2019-03-12T10:22:40.875Z,85.53
2019-03-12T10:25:35.323Z,85.76
2019-03-12T10:28:29.595Z,85.55
2019-03-12T10:31:04.832Z,85.55
2019-03-12T10:33:55.988Z,85.48
2019-03-12T10:36:44.592Z,85.48
2019-03-12T10:40:11.767Z,85.00
2019-03-12T10:43:05.826Z,84.86
2019-03-12T10:46:06.244Z,84.49
2019-03-12T10:48:36.154Z,84.70
2019-03-12T10:51:05.610Z,81.82
2019-03-12T10:53:34.951Z,81.82
2019-03-12T10:56:05.115Z,81.34
2019-03-12T10:58:34.691Z,80.97
2019-03-12T11:01:05.520Z,80.74
2019-03-12T11:03:35.086Z,81.43
2019-03-12T11:06:04.559Z,81.43
2019-03-12T11:08:33.960Z,81.92
2019-03-12T11:11:04.166Z,82.57
2019-03-12T11:13:34.350Z,82.50
2019-03-12T11:16:03.707Z,83.24
2019-03-12T11:18:33.129Z,83.24
2019-03-12T11:21:02.521Z,83.56
2019-03-12T11:23:34.215Z,83.36
2019-03-12T11:26:04.036Z,83.42
2019-03-12T11:28:34.514Z,83.42
2019-03-12T11:31:03.903Z,83.79
2019-03-12T11:33:33.647Z,84.70
2019-03-12T11:36:03.158Z,84.70
2019-03-12T11:38:33.433Z,86.25
2019-03-12T11:41:03.416Z,87.07
2019-03-12T11:43:32.914Z,87.31
2019-03-12T11:46:02.347Z,87.84
2019-03-12T11:48:32.016Z,88.22
2019-03-12T11:51:01.916Z,88.40
2019-03-12T11:53:31.564Z,88.29
2019-03-12T11:56:00.957Z,88.01
2019-03-12T11:58:30.841Z,87.43
2019-03-12T12:01:02.700Z,87.15
2019-03-12T12:03:33.146Z,87.43
2019-03-12T12:06:02.554Z,86.22
2019-03-12T12:08:32.106Z,86.89
2019-03-12T12:11:02.506Z,86.55
2019-03-12T12:13:32.326Z,86.46
2019-03-12T12:16:01.749Z,87.43
2019-03-12T12:18:31.544Z,87.65
2019-03-12T12:21:00.948Z,88.20
2019-03-12T12:23:30.393Z,88.51
2019-03-12T12:25:59.889Z,88.51
2019-03-12T12:28:31.843Z,87.20
2019-03-12T12:31:01.763Z,85.80
2019-03-12T12:33:31.153Z,88.63
2019-03-12T12:36:00.590Z,88.63
2019-03-12T12:38:29.959Z,90.04
2019-03-12T12:40:59.476Z,90.04
2019-03-12T12:43:29.165Z,90.29
2019-03-12T12:45:59.186Z,89.32
2019-03-12T12:48:28.570Z,88.80
2019-03-12T12:51:03.043Z,89.46
2019-03-12T12:53:29.091Z,89.31
2019-03-12T12:55:58.885Z,89.59
2019-03-12T12:58:28.279Z,88.46
2019-03-12T13:00:57.676Z,87.72
2019-03-12T13:03:27.063Z,87.58
2019-03-12T13:05:56.719Z,87.96
2019-03-12T13:08:26.172Z,87.27
2019-03-12T13:10:55.629Z,87.31
2019-03-12T13:13:28.777Z,87.07
2019-03-12T13:15:58.201Z,85.11
2019-03-12T13:18:27.551Z,86.17
2019-03-12T13:20:56.959Z,86.08
2019-03-12T13:23:26.372Z,86.08
2019-03-12T13:25:55.787Z,85.95
2019-03-12T13:28:25.182Z,85.52
2019-03-12T13:30:54.648Z,85.46
2019-03-12T13:33:24.052Z,79.43
2019-03-12T13:35:53.446Z,77.82
2019-03-12T13:38:23.079Z,77.82
2019-03-12T13:40:52.497Z,76.50
2019-03-12T13:43:21.861Z,76.13
2019-03-12T13:45:51.700Z,76.13
2019-03-12T13:48:21.120Z,75.33
2019-03-12T13:50:50.746Z,74.58
2019-03-12T13:53:20.162Z,76.83
2019-03-12T13:55:49.590Z,76.76
2019-03-12T13:58:18.995Z,77.40
2019-03-12T14:00:48.337Z,78.31
2019-03-12T14:03:18.139Z,76.82
2019-03-12T14:05:47.504Z,76.74
2019-03-12T14:08:16.860Z,75.50
2019-03-12T14:10:46.216Z,75.82
2019-03-12T14:13:15.711Z,76.00
2019-03-12T14:15:45.086Z,74.90
2019-03-12T14:18:14.563Z,75.89
2019-03-12T14:20:45.683Z,76.13
2019-03-12T14:23:17.741Z,76.96
2019-03-12T14:25:47.162Z,76.77
2019-03-12T14:28:17.444Z,76.24
2019-03-12T14:30:47.253Z,76.08
2019-03-12T14:33:16.610Z,76.26
2019-03-12T14:35:51.362Z,77.33
2019-03-12T14:38:18.150Z,77.68
2019-03-12T14:40:47.599Z,76.17
2019-03-12T14:43:17.093Z,76.48
2019-03-12T14:45:49.547Z,76.37
2019-03-12T14:48:47.157Z,76.41
2019-03-12T14:51:59.055Z,75.56
2019-03-12T14:54:28.590Z,75.82
2019-03-12T14:56:58.056Z,75.39
2019-03-12T14:59:28.870Z,75.84
2019-03-12T15:01:58.554Z,74.97
2019-03-12T15:04:28.809Z,74.40
2019-03-12T15:06:58.355Z,75.08
2019-03-12T15:09:27.805Z,75.07
2019-03-12T15:11:57.321Z,75.38
2019-03-12T15:14:26.759Z,75.38
2019-03-12T15:16:56.229Z,75.58
2019-03-12T15:19:25.647Z,75.87
2019-03-12T15:21:56.315Z,75.19
2019-03-12T15:24:25.726Z,75.19
2019-03-12T15:26:55.206Z,75.61
2019-03-12T15:29:24.656Z,75.17
2019-03-12T15:32:03.479Z,74.64
2019-03-12T15:34:25.907Z,73.76
2019-03-12T15:36:55.446Z,73.76
2019-03-12T15:39:25.561Z,73.81
2019-03-12T15:41:54.948Z,73.89
2019-03-12T15:44:24.393Z,74.30
2019-03-12T15:46:53.799Z,74.44
2019-03-12T15:49:23.219Z,74.67
2019-03-12T15:51:53.485Z,74.78
2019-03-12T15:54:23.359Z,75.67
2019-03-12T15:56:52.768Z,75.67
2019-03-12T15:59:22.313Z,76.12
2019-03-12T16:01:51.740Z,76.06
2019-03-12T16:04:21.206Z,75.95
2019-03-12T16:07:00.617Z,75.61
2019-03-12T16:09:22.098Z,75.77
2019-03-12T16:11:51.505Z,76.29
2019-03-12T16:14:20.968Z,77.04
2019-03-12T16:16:50.438Z,76.53
2019-03-12T16:19:19.872Z,76.93
2019-03-12T16:21:49.750Z,77.15
2019-03-12T16:24:19.225Z,77.21
2019-03-12T16:26:48.549Z,77.22
2019-03-12T16:29:18.033Z,77.09
2019-03-12T16:31:47.434Z,77.57
2019-03-12T16:34:17.784Z,78.02
2019-03-12T16:36:48.436Z,77.76
2019-03-12T16:39:18.164Z,77.96
2019-03-12T16:41:47.568Z,77.74
2019-03-12T16:44:17.601Z,77.47
2019-03-12T16:46:47.273Z,77.51
2019-03-12T16:49:16.684Z,78.21
2019-03-12T16:51:46.287Z,78.75
2019-03-12T16:54:16.339Z,78.59
2019-03-12T16:56:46.478Z,78.62
2019-03-12T16:59:15.874Z,78.82
2019-03-12T17:01:45.316Z,78.95
2019-03-12T17:04:15.100Z,78.26
2019-03-12T17:06:44.572Z,78.10
2019-03-12T17:09:14.352Z,78.20
2019-03-12T17:11:43.791Z,77.84
2019-03-12T17:14:13.254Z,77.42
2019-03-12T17:16:44.950Z,77.71
2019-03-12T17:19:15.140Z,77.75
2019-03-12T17:21:44.713Z,78.07
2019-03-12T17:24:15.576Z,78.30
2019-03-12T17:26:46.309Z,78.21
2019-03-12T17:29:15.655Z,78.43
2019-03-12T17:31:45.750Z,78.70
2019-03-12T17:34:15.212Z,78.97
2019-03-12T17:36:44.654Z,79.04
2019-03-12T17:39:15.565Z,78.58
2019-03-12T17:41:45.029Z,78.67
2019-03-12T17:44:14.506Z,78.37
2019-03-12T17:46:44.856Z,78.37
2019-03-12T17:49:17.324Z,78.29
2019-03-12T17:51:48.519Z,78.42
2019-03-12T17:54:17.920Z,78.24
2019-03-12T17:56:47.759Z,78.38
2019-03-12T17:59:17.720Z,78.56
2019-03-12T18:01:47.257Z,78.54
2019-03-12T18:04:16.725Z,78.36
2019-03-12T18:06:50.151Z,78.45
2019-03-12T18:09:20.213Z,78.57
2019-03-12T18:11:51.364Z,78.88
2019-03-12T18:14:21.534Z,78.78
2019-03-12T18:16:50.970Z,78.82
2019-03-12T18:19:20.922Z,79.22
2019-03-12T18:21:50.692Z,79.56
2019-03-12T18:24:20.331Z,80.01
2019-03-12T18:26:50.288Z,80.34
2019-03-12T18:29:19.673Z,80.46
2019-03-12T18:31:51.681Z,80.44
2019-03-12T18:34:21.265Z,80.94
2019-03-12T18:36:51.404Z,80.97
2019-03-12T18:39:21.455Z,81.38
2019-03-12T18:41:55.724Z,81.66
2019-03-12T18:44:23.917Z,81.96
2019-03-12T18:46:53.940Z,81.85
2019-03-12T18:49:24.050Z,82.04
2019-03-12T18:51:53.413Z,82.24
2019-03-12T18:54:23.088Z,82.26
2019-03-12T18:56:53.161Z,82.56
2019-03-12T18:59:22.840Z,82.17
2019-03-12T19:01:53.019Z,82.21
2019-03-12T19:04:23.744Z,82.24
2019-03-12T19:06:54.090Z,82.22
2019-03-12T19:09:25.745Z,82.32
2019-03-12T19:11:56.592Z,82.47
2019-03-12T19:14:25.993Z,82.20
2019-03-12T19:16:57.046Z,82.03
2019-03-12T19:19:27.044Z,82.12
2019-03-12T19:21:56.820Z,81.85
2019-03-12T19:24:26.650Z,82.20
2019-03-12T19:26:56.105Z,82.02
2019-03-12T19:29:26.287Z,81.97
2019-03-12T19:32:24.651Z,82.04
2019-03-12T19:34:54.860Z,82.83
2019-03-12T19:37:25.137Z,85.12
2019-03-12T19:39:54.604Z,83.47
2019-03-12T19:42:24.739Z,81.36
2019-03-12T19:44:54.295Z,78.62
2019-03-12T19:47:25.488Z,76.90
2019-03-12T19:49:54.927Z,77.33
2019-03-12T19:52:24.513Z,76.12
2019-03-12T19:54:53.960Z,74.53
2019-03-12T19:57:24.748Z,74.53
2019-03-12T19:59:54.164Z,73.21
2019-03-12T20:02:24.502Z,73.84
2019-03-12T20:04:53.969Z,74.29
2019-03-12T20:07:23.463Z,72.47
2019-03-12T20:10:32.545Z,72.47
2019-03-12T20:13:39.055Z,72.22
2019-03-12T20:17:08.453Z,74.35
2019-03-12T20:20:26.421Z,75.46
2019-03-12T20:23:44.238Z,75.46
2019-03-12T20:27:09.752Z,72.99
2019-03-12T20:30:13.795Z,71.38
2019-03-12T20:33:32.446Z,71.38
2019-03-12T20:36:38.991Z,70.51
2019-03-12T20:39:43.993Z,70.51
2019-03-12T20:42:44.939Z,74.88
2019-03-12T20:46:09.548Z,74.88
2019-03-12T20:49:14.546Z,76.23
2019-03-12T20:52:32.556Z,77.52
2019-03-12T20:55:53.807Z,77.93
2019-03-12T20:59:09.206Z,78.41
2019-03-12T21:02:18.491Z,78.74
2019-03-12T21:05:39.951Z,79.31
2019-03-12T21:08:49.235Z,79.82
2019-03-12T21:12:12.786Z,80.01
2019-03-12T21:15:10.018Z,80.07
2019-03-12T21:18:12.650Z,79.66
2019-03-12T21:21:14.455Z,79.44
2019-03-12T21:24:01.351Z,79.47
2019-03-12T21:27:22.695Z,79.10
2019-03-12T21:29:52.154Z,79.08
2019-03-12T21:32:21.728Z,79.19
2019-03-12T21:34:51.972Z,79.40
2019-03-12T21:37:22.658Z,79.78
2019-03-12T21:39:55.788Z,79.90
2019-03-12T21:42:25.762Z,80.14
2019-03-12T21:44:55.628Z,79.85
2019-03-12T21:47:25.091Z,81.05
2019-03-12T21:49:55.290Z,80.80
2019-03-12T21:52:24.899Z,80.72
2019-03-12T21:54:54.341Z,81.30
2019-03-12T21:57:24.973Z,81.07
2019-03-12T21:59:54.739Z,81.09
2019-03-12T22:02:25.095Z,80.64
2019-03-12T22:04:54.516Z,80.84
2019-03-12T22:07:24.411Z,80.87
2019-03-12T22:09:54.434Z,81.34
2019-03-12T22:12:23.869Z,81.82
2019-03-12T22:14:53.398Z,82.12
2019-03-12T22:17:22.756Z,82.14
2019-03-12T22:19:52.788Z,81.40
2019-03-12T22:22:50.462Z,81.09
2019-03-12T22:25:20.414Z,81.38
2019-03-12T22:27:50.638Z,81.42
2019-03-12T22:30:23.046Z,81.66
2019-03-12T22:32:52.433Z,81.62
2019-03-12T22:35:21.945Z,81.43
2019-03-12T22:37:51.746Z,81.16
2019-03-12T22:40:22.056Z,80.63
2019-03-12T22:42:51.871Z,80.14
2019-03-12T22:45:21.397Z,80.61
2019-03-12T22:47:50.808Z,81.17
2019-03-12T22:50:20.207Z,81.70
2019-03-12T22:52:50.422Z,82.03
2019-03-12T22:55:23.003Z,81.85
2019-03-12T22:57:53.039Z,81.96
2019-03-12T23:00:22.617Z,81.01
2019-03-12T23:02:52.829Z,80.85
2019-03-12T23:05:22.363Z,81.39
2019-03-12T23:07:52.249Z,81.47
2019-03-12T23:10:23.424Z,81.12
2019-03-12T23:12:53.751Z,80.94
2019-03-12T23:15:24.370Z,80.96
2019-03-12T23:17:53.752Z,81.09
2019-03-12T23:20:23.113Z,80.92
2019-03-12T23:22:52.963Z,80.63
2019-03-12T23:25:22.772Z,80.62
2019-03-12T23:27:53.610Z,80.64
2019-03-12T23:30:28.598Z,81.13
2019-03-12T23:32:57.827Z,81.11
2019-03-12T23:35:31.413Z,81.40
2019-03-12T23:38:05.124Z,82.06
2019-03-12T23:40:35.359Z,82.84
2019-03-12T23:43:06.833Z,83.27
2019-03-12T23:45:36.213Z,83.61
2019-03-12T23:48:06.944Z,84.34
2019-03-12T23:50:39.909Z,84.87
2019-03-12T23:53:09.514Z,85.30
2019-03-12T23:55:39.472Z,85.62
2019-03-12T23:58:08.886Z,86.07
